createdAt,value
2023-05-05T00:01:16.713Z,3.9875
2023-05-05T00:04:17.870Z,4.025
2023-05-05T00:07:16.884Z,3.5749999999999997
2023-05-05T00:11:16.103Z,3.2874999999999996
2023-05-05T00:14:16.618Z,3.9625000000000004
2023-05-05T00:17:17.393Z,3.5625
2023-05-05T00:21:16.799Z,4.112500000000001
2023-05-05T00:24:16.922Z,4.1625
2023-05-05T00:27:17.091Z,3.2125000000000004
2023-05-05T00:31:16.282Z,4.45
2023-05-05T00:34:16.284Z,4.4750000000000005
2023-05-05T00:37:16.833Z,3.925
2023-05-05T00:41:16.458Z,4.3
2023-05-05T00:44:16.850Z,4.375
2023-05-05T00:47:17.448Z,3.2875
2023-05-05T00:51:17.451Z,3.9375
2023-05-05T00:54:17.301Z,3.125
2023-05-05T00:57:17.753Z,3.6625
2023-05-05T01:01:16.870Z,4.275
2023-05-05T01:04:17.222Z,3.4
2023-05-05T01:07:40.124Z,3.4625000000000004
2023-05-05T01:11:24.550Z,3.6875
2023-05-05T01:14:22.170Z,3.725
2023-05-05T01:17:19.782Z,4.1125
2023-05-05T01:21:22.527Z,3.525
2023-05-05T01:24:42.328Z,3.825
2023-05-05T01:27:36.705Z,4.475
2023-05-05T01:31:27.139Z,3.5625
2023-05-05T01:34:22.307Z,3.825
2023-05-05T01:37:21.645Z,4.15
2023-05-05T01:41:21.227Z,4.0875
2023-05-05T01:44:18.873Z,4.35
2023-05-05T01:47:20.213Z,3.9499999999999997
2023-05-05T01:51:18.413Z,3.725
2023-05-05T01:54:18.924Z,4.1125
2023-05-05T01:57:18.190Z,3.55
2023-05-05T02:01:19.960Z,4.1125
2023-05-05T02:04:19.050Z,3.9499999999999997
2023-05-05T02:07:17.600Z,3.4250000000000003
2023-05-05T02:11:17.436Z,4.4625
2023-05-05T02:14:18.993Z,3.4375
2023-05-05T02:17:18.398Z,3.975
2023-05-05T02:21:18.392Z,4.025
2023-05-05T02:24:16.703Z,4.0125
2023-05-05T02:27:19.337Z,4.449999999999999
2023-05-05T02:31:19.472Z,3.5875
2023-05-05T02:34:20.446Z,4.7875
2023-05-05T02:37:20.408Z,4.025
2023-05-05T02:41:19.704Z,4.95
2023-05-05T02:44:19.328Z,4.25
2023-05-05T02:47:17.028Z,4.199999999999999
2023-05-05T02:51:15.909Z,4.675000000000001
2023-05-05T02:54:16.559Z,4.375
2023-05-05T02:57:19.347Z,4.5125
2023-05-05T03:01:28.458Z,4.1125
2023-05-05T03:04:24.643Z,4.275
2023-05-05T03:07:24.743Z,4.6875
2023-05-05T03:11:25.398Z,5.2125
2023-05-05T03:14:19.851Z,4.6875
2023-05-05T03:17:19.363Z,4.325
2023-05-05T03:21:17.463Z,5.2124999999999995
2023-05-05T03:24:18.537Z,4.6875
2023-05-05T03:27:17.070Z,4.512499999999999
2023-05-05T03:31:17.462Z,4.125
2023-05-05T03:34:17.153Z,4.1625
2023-05-05T03:37:17.015Z,3.725
2023-05-05T03:41:15.804Z,4.3875
2023-05-05T03:44:16.101Z,3.975
2023-05-05T03:47:16.298Z,4
2023-05-05T03:51:16.730Z,5
2023-05-05T03:54:16.931Z,3.825
2023-05-05T03:57:17.035Z,4.5
2023-05-05T04:01:16.413Z,4.449999999999999
2023-05-05T04:04:16.739Z,4.7125
2023-05-05T04:07:16.519Z,3.95
2023-05-05T04:11:16.807Z,4.9
2023-05-05T04:14:17.065Z,4.262499999999999
2023-05-05T04:17:17.055Z,4.7125
2023-05-05T04:21:16.257Z,5.3375
2023-05-05T04:24:17.108Z,4.7125
2023-05-05T04:27:16.654Z,4.775
2023-05-05T04:31:16.532Z,4.824999999999999
2023-05-05T04:34:16.769Z,4.7375
2023-05-05T04:37:16.787Z,3.875
2023-05-05T04:41:16.778Z,4.262499999999999
2023-05-05T04:44:16.972Z,5.050000000000001
2023-05-05T04:47:16.940Z,5.7625
2023-05-05T04:51:16.137Z,5.15
2023-05-05T04:54:16.158Z,5.2
2023-05-05T04:57:16.097Z,4.887499999999999
2023-05-05T05:01:16.252Z,5.275
2023-05-05T05:04:18.766Z,4.5625
2023-05-05T05:07:16.156Z,4.4375
2023-05-05T05:11:16.804Z,4.5875
2023-05-05T05:14:17.471Z,5.85
2023-05-05T05:17:18.428Z,3.9375
2023-05-05T05:21:16.394Z,5.15
2023-05-05T05:24:16.636Z,4.550000000000001
2023-05-05T05:27:16.578Z,4.3875
2023-05-05T05:31:15.819Z,4.15
2023-05-05T05:34:16.181Z,4.1125
2023-05-05T05:37:16.087Z,4.5625
2023-05-05T05:41:16.165Z,5.05
2023-05-05T05:44:16.528Z,5.074999999999999
2023-05-05T05:47:16.654Z,4.925
2023-05-05T05:51:16.579Z,5.5375000000000005
2023-05-05T05:54:16.926Z,4.925
2023-05-05T05:57:16.936Z,4.987500000000001
2023-05-05T06:01:19.691Z,5.050000000000001
2023-05-05T06:04:20.112Z,5.6
2023-05-05T06:07:20.305Z,4.324999999999999
2023-05-05T06:11:16.911Z,4.725
2023-05-05T06:14:18.077Z,4.9875
2023-05-05T06:17:16.964Z,4.525
2023-05-05T06:21:16.617Z,5.475
2023-05-05T06:24:16.996Z,5.2375
2023-05-05T06:27:16.957Z,3.9375
2023-05-05T06:31:15.869Z,4.237500000000001
2023-05-05T06:34:16.381Z,3.5625
2023-05-05T06:37:16.223Z,4.575
2023-05-05T06:41:16.632Z,4.1625
2023-05-05T06:44:16.882Z,3.5374999999999996
2023-05-05T06:47:17.137Z,4.475
2023-05-05T06:51:16.747Z,4.2375
2023-05-05T06:54:16.366Z,4.4625
2023-05-05T06:57:16.559Z,3.6125
2023-05-05T07:01:16.325Z,4.8125
2023-05-05T07:04:16.770Z,4.85
2023-05-05T07:07:17.097Z,3.5999999999999996
2023-05-05T07:11:16.820Z,3.0375
2023-05-05T07:14:16.916Z,3.675
2023-05-05T07:17:16.932Z,4.1875
2023-05-05T07:21:16.902Z,3.5
2023-05-05T07:24:16.950Z,3.8875
2023-05-05T07:27:16.942Z,3.375
2023-05-05T07:31:16.603Z,3.7624999999999997
2023-05-05T07:34:16.973Z,3.5125
2023-05-05T07:37:16.937Z,2.75
2023-05-05T07:41:16.047Z,2.8
2023-05-05T07:44:16.357Z,3.2125000000000004
2023-05-05T07:47:16.437Z,3.5125
2023-05-05T07:51:16.389Z,2.675
2023-05-05T07:54:16.734Z,2.2625
2023-05-05T07:57:16.602Z,2.7
2023-05-05T08:01:16.661Z,2.5999999999999996
2023-05-05T08:04:16.893Z,2.225
2023-05-05T08:07:16.926Z,2
2023-05-05T08:11:16.800Z,2.675
2023-05-05T08:14:16.717Z,2.6875
2023-05-05T08:17:16.967Z,3.4000000000000004
2023-05-05T08:21:16.567Z,3.425
2023-05-05T08:24:16.748Z,3.3125
2023-05-05T08:27:16.739Z,4.0375
2023-05-05T08:31:16.306Z,5.5625
2023-05-05T08:34:16.665Z,5.4125
2023-05-05T08:37:18.936Z,5.4750000000000005
2023-05-05T08:41:17.535Z,5.1125
2023-05-05T08:44:17.120Z,5.7
2023-05-05T08:47:17.212Z,5.375
2023-05-05T08:51:19.011Z,8.1125
2023-05-05T08:54:19.057Z,6.1
2023-05-05T08:57:24.224Z,5.1625000000000005
2023-05-05T09:01:17.439Z,5.5249999999999995
2023-05-05T09:04:19.779Z,4.4750000000000005
2023-05-05T09:07:17.812Z,4.487500000000001
2023-05-05T09:11:16.823Z,4.5
2023-05-05T09:14:17.116Z,5.1125
2023-05-05T09:17:25.751Z,5.4125
2023-05-05T09:21:19.310Z,5.6625
2023-05-05T09:24:16.864Z,4.7
2023-05-05T09:27:21.591Z,3.85
2023-05-05T09:31:16.623Z,5.262499999999999
2023-05-05T09:34:16.808Z,4.9
2023-05-05T09:37:27.092Z,4.1625
2023-05-05T09:41:36.448Z,5.15
2023-05-05T09:44:31.406Z,4.65
2023-05-05T09:47:28.975Z,3.2875000000000005
2023-05-05T09:51:27.509Z,3.5875000000000004
2023-05-05T09:54:22.691Z,3.2625
2023-05-05T09:57:33.611Z,2.7375
2023-05-05T10:01:22.140Z,3.1125000000000003
2023-05-05T10:04:25.956Z,2.1999999999999997
2023-05-05T10:07:23.241Z,2.3
2023-05-05T10:11:16.431Z,3.025
2023-05-05T10:14:17.666Z,2.7249999999999996
2023-05-05T10:17:18.321Z,2.175
2023-05-05T10:21:19.765Z,2.8875
2023-05-05T10:24:25.273Z,2.425
2023-05-05T10:27:19.761Z,2.2875
2023-05-05T10:31:25.225Z,3.025
2023-05-05T10:34:22.960Z,3.3125
2023-05-05T10:37:18.880Z,2.8875
2023-05-05T10:41:19.677Z,3.2875
2023-05-05T10:44:17.271Z,3.5749999999999997
2023-05-05T10:47:17.130Z,3.0875000000000004
2023-05-05T10:51:39.460Z,3.7
2023-05-05T10:54:22.345Z,3.1
2023-05-05T10:57:20.224Z,2.925
2023-05-05T11:01:28.477Z,3.6125
2023-05-05T11:04:18.199Z,3.1375
2023-05-05T11:07:24.102Z,3.3125
2023-05-05T11:11:16.487Z,3.25
2023-05-05T11:14:19.798Z,3.35
2023-05-05T11:18:08.276Z,2.7
2023-05-05T11:21:16.826Z,3.625
2023-05-05T11:24:27.235Z,2.6875
2023-05-05T11:28:02.864Z,2.575
2023-05-05T11:31:18.508Z,2.5875
2023-05-05T11:34:25.809Z,2.8125
2023-05-05T11:37:16.580Z,2.95
2023-05-05T11:41:25.145Z,4.2875000000000005
2023-05-05T11:44:18.666Z,2.9
2023-05-05T11:47:32.601Z,2.6875
2023-05-05T11:51:17.538Z,2.3125
2023-05-05T11:54:20.246Z,2.175
2023-05-05T11:57:19.360Z,2.125
2023-05-05T12:11:17.917Z,2.5500000000000003
2023-05-05T12:14:17.589Z,2.6500000000000004
2023-05-05T12:17:18.558Z,2.3125
2023-05-05T12:21:17.616Z,2.2625
2023-05-05T12:24:17.388Z,2.3
2023-05-05T12:27:17.081Z,2.025
2023-05-05T12:31:16.152Z,4.6375
2023-05-05T12:34:16.614Z,3.9125
2023-05-05T12:37:17.245Z,4.55
2023-05-05T12:41:18.059Z,4.825
2023-05-05T12:44:16.938Z,4.824999999999999
2023-05-05T12:47:30.010Z,3.8499999999999996
2023-05-05T12:51:18.988Z,3.1375
2023-05-05T12:54:16.758Z,3.125
2023-05-05T12:57:16.876Z,1.95
2023-05-05T13:01:16.814Z,3.0250000000000004
2023-05-05T13:04:18.038Z,2.3375
2023-05-05T13:07:18.841Z,2.5500000000000003
2023-05-05T13:11:16.227Z,2.5124999999999997
2023-05-05T13:14:16.517Z,2.125
2023-05-05T13:17:16.597Z,2.2249999999999996
2023-05-05T13:21:16.894Z,2.45
2023-05-05T13:27:16.856Z,1.975
2023-05-05T13:31:16.378Z,1.8875
2023-05-05T13:34:16.861Z,2.3249999999999997
2023-05-05T13:37:16.937Z,2.2875
2023-05-05T13:41:16.099Z,2.5250000000000004
2023-05-05T13:44:16.353Z,2.675
2023-05-05T13:47:16.296Z,2.5625
2023-05-05T13:51:16.473Z,2.375
2023-05-05T13:54:16.795Z,2.5
2023-05-05T13:57:17.146Z,2.425
2023-05-05T14:01:16.215Z,2.4
2023-05-05T14:04:16.524Z,2.45
2023-05-05T14:07:17.056Z,2.625
2023-05-05T14:11:18.182Z,1.9125
2023-05-05T14:14:16.475Z,2.225
2023-05-05T14:17:16.431Z,1.8375
2023-05-05T14:21:16.337Z,1.6375000000000002
2023-05-05T14:24:16.645Z,2.0625
2023-05-05T14:27:16.745Z,2.025
2023-05-05T14:31:16.376Z,1.9375
2023-05-05T14:34:16.684Z,2
2023-05-05T14:37:16.600Z,2.2875
2023-05-05T14:41:15.872Z,2.0125
2023-05-05T14:44:16.277Z,1.75
2023-05-05T14:47:16.260Z,2.0875
2023-05-05T14:51:16.319Z,1.8875
2023-05-05T14:54:27.521Z,2.625
2023-05-05T14:57:16.572Z,2.5
2023-05-05T15:01:16.346Z,2.7750000000000004
2023-05-05T15:04:16.782Z,2.5
2023-05-05T15:07:16.919Z,2.8499999999999996
2023-05-05T15:11:16.652Z,2.3499999999999996
2023-05-05T15:14:17.092Z,2.075
2023-05-05T15:17:17.115Z,2.5875
2023-05-05T15:21:16.223Z,3.9875
2023-05-05T15:24:16.669Z,3.3125
2023-05-05T15:27:18.299Z,2.7375
2023-05-05T15:31:16.628Z,2.8875
2023-05-05T15:34:17.114Z,2.1375
2023-05-05T15:37:17.128Z,2.5124999999999997
2023-05-05T15:41:16.485Z,2.325
2023-05-05T15:44:16.968Z,2.425
2023-05-05T15:47:17.077Z,2.3375000000000004
2023-05-05T15:51:16.630Z,2.4749999999999996
2023-05-05T15:54:16.951Z,2.375
2023-05-05T15:57:16.910Z,2.0875
2023-05-05T16:01:16.731Z,2.625
2023-05-05T16:04:16.595Z,3.05
2023-05-05T16:07:17.354Z,2.225
2023-05-05T16:11:16.311Z,2.725
2023-05-05T16:14:16.758Z,3
2023-05-05T16:17:16.805Z,2.25
2023-05-05T16:21:16.062Z,2.5375
2023-05-05T16:24:17.109Z,2.775
2023-05-05T16:27:16.602Z,2.8375000000000004
2023-05-05T16:31:16.347Z,2.2625
2023-05-05T16:34:16.668Z,2.75
2023-05-05T16:37:16.839Z,2.9625
2023-05-05T16:41:16.821Z,2.7625
2023-05-05T16:44:17.122Z,2.1999999999999997
2023-05-05T16:47:17.315Z,2.6500000000000004
2023-05-05T16:51:16.189Z,3.25
2023-05-05T16:54:16.315Z,2.55
2023-05-05T16:57:16.359Z,2.2875
2023-05-05T17:01:16.011Z,2.425
2023-05-05T17:04:16.439Z,2.7625
2023-05-05T17:07:16.425Z,2.1875
2023-05-05T17:11:16.163Z,2.2625
2023-05-05T17:14:16.780Z,2.35
2023-05-05T17:17:16.579Z,2.5375
2023-05-05T17:21:16.540Z,3.075
2023-05-05T17:24:16.664Z,2.8
2023-05-05T17:27:16.756Z,2.3625
2023-05-05T17:31:16.666Z,2.825
2023-05-05T17:34:17.089Z,2.5125
2023-05-05T17:37:17.080Z,2.4499999999999997
2023-05-05T17:41:16.958Z,2.5374999999999996
2023-05-05T17:44:16.772Z,2.175
2023-05-05T17:47:17.031Z,2.4749999999999996
2023-05-05T17:51:16.304Z,2.3875
2023-05-05T18:01:20.924Z,2.4375
2023-05-05T18:04:16.387Z,2.325
2023-05-05T18:07:16.193Z,2.6875
2023-05-05T18:11:16.252Z,2.45
2023-05-05T18:14:17.670Z,1.8250000000000002
2023-05-05T18:17:16.636Z,1.925
2023-05-05T18:21:16.360Z,2.175
2023-05-05T18:24:20.429Z,2.3125
2023-05-05T18:27:16.883Z,3.0500000000000003
2023-05-05T18:31:15.824Z,2.55
2023-05-05T18:34:17.293Z,2.6375
2023-05-05T18:37:16.493Z,1.7375
2023-05-05T18:41:16.246Z,2.3375000000000004
2023-05-05T18:44:16.899Z,2.6875
2023-05-05T18:47:16.593Z,2.7
2023-05-05T18:51:22.227Z,2.2
2023-05-05T18:54:16.973Z,2.4375
2023-05-05T18:57:17.041Z,2.7625
2023-05-05T19:01:16.684Z,2.2375
2023-05-05T19:04:29.500Z,2.25
2023-05-05T19:07:27.912Z,2.5625
2023-05-05T19:11:16.330Z,2.15
2023-05-05T19:14:18.357Z,2.8
2023-05-05T19:17:17.025Z,2.95
2023-05-05T19:21:16.758Z,3.3875
2023-05-05T19:24:17.415Z,2.5
2023-05-05T19:27:17.378Z,2.925
2023-05-05T19:41:21.778Z,2.7
2023-05-05T19:44:22.981Z,2.5875
2023-05-05T19:47:22.168Z,2.7625
2023-05-05T19:51:17.458Z,3.125
2023-05-05T19:54:17.681Z,2.825
2023-05-05T19:57:17.807Z,2.4124999999999996
2023-05-05T20:01:16.412Z,3
2023-05-05T20:04:16.744Z,3.4125
2023-05-05T20:07:18.231Z,3.5250000000000004
2023-05-05T20:11:16.694Z,3.7625
2023-05-05T20:14:16.404Z,3.0625
2023-05-05T20:17:20.104Z,3.5875000000000004
2023-05-05T20:21:17.609Z,2.875
2023-05-05T20:31:16.850Z,2.675
2023-05-05T20:34:17.188Z,2.5374999999999996
2023-05-05T20:37:17.059Z,2.5375
2023-05-05T20:41:16.315Z,3.2375
2023-05-05T20:44:16.808Z,2.6
2023-05-05T20:47:16.588Z,3.2875
2023-05-05T20:51:16.484Z,3.475
2023-05-05T20:54:16.715Z,3.3125
2023-05-05T20:57:16.846Z,2.7375
2023-05-05T21:01:16.260Z,3.2625
2023-05-05T21:21:16.722Z,3.1
2023-05-05T21:24:16.770Z,2.6875
2023-05-05T21:27:16.925Z,3.25
2023-05-05T21:34:16.934Z,3.3
2023-05-05T21:37:16.932Z,3.2
2023-05-05T21:41:16.986Z,3.6125
2023-05-05T21:44:16.904Z,3.0875
2023-05-05T21:47:17.574Z,3.3375000000000004
2023-05-05T21:51:16.262Z,3.325
2023-05-05T21:54:16.584Z,2.75
2023-05-05T21:57:16.575Z,3.125
2023-05-05T22:01:16.288Z,3.5125
